Time;durP1;ratioP1;P1;durP2;ratioP2;P2;SDS_P1;SDS_P2;PMS_P1;PMS_P2;Temp;Humidity;BMP_temperature;BMP_pressure;BME280_temperature;BME280_humidity;BME280_pressure;Samples;Min_cycle;Max_cycle;Signal;HPM_P1;HPM_P2
2022/05/21 00:01:53;;;;;;;5.18;2.15;;;10.60;99.90;;;;;;5081757;28;20048;-63
2022/05/21 00:04:19;;;;;;;6.10;2.78;;;10.60;99.90;;;;;;5087904;28;20039;-63
2022/05/21 00:06:44;;;;;;;5.90;2.30;;;10.60;99.90;;;;;;5089002;28;20051;-65
2022/05/21 00:09:10;;;;;;;5.60;2.08;;;10.50;99.90;;;;;;5108207;28;20051;-64
2022/05/21 00:11:37;;;;;;;5.90;2.30;;;10.50;99.90;;;;;;5088468;28;20059;-65
2022/05/21 00:14:03;;;;;;;12.10;2.58;;;10.60;99.90;;;;;;5089822;28;20048;-60
2022/05/21 00:16:29;;;;;;;6.95;2.60;;;10.50;99.90;;;;;;5089232;28;20061;-68
2022/05/21 00:18:56;;;;;;;4.53;2.72;;;10.50;99.90;;;;;;5089771;28;20042;-66
2022/05/21 00:21:23;;;;;;;5.82;2.45;;;10.50;99.90;;;;;;5089064;28;20389;-59
2022/05/21 00:23:50;;;;;;;7.00;2.33;;;10.40;99.90;;;;;;5088668;28;20087;-64
2022/05/21 00:26:17;;;;;;;8.32;2.45;;;10.40;99.90;;;;;;5107815;28;20059;-63
2022/05/21 00:28:44;;;;;;;7.03;2.50;;;10.40;99.90;;;;;;5071815;28;20530;-64
2022/05/21 00:31:13;;;;;;;8.43;2.88;;;10.40;99.90;;;;;;5071902;28;20516;-61
2022/05/21 00:33:39;;;;;;;6.72;2.72;;;10.40;99.90;;;;;;5088186;28;20493;-59
2022/05/21 00:36:07;;;;;;;10.15;3.42;;;10.40;99.90;;;;;;5089438;28;20055;-61
2022/05/21 00:38:34;;;;;;;7.50;2.97;;;10.40;99.90;;;;;;5088336;28;20497;-62
2022/05/21 00:41:01;;;;;;;4.57;2.60;;;10.40;99.90;;;;;;5089338;28;20036;-65
2022/05/21 00:43:57;;;;;;;7.20;2.58;;;10.40;99.90;;;;;;5085362;28;20032;-60
2022/05/21 00:46:29;;;;;;;5.60;3.17;;;10.40;99.90;;;;;;5085228;28;20520;-59
2022/05/21 00:49:01;;;;;;;12.60;3.55;;;10.40;99.90;;;;;;5085870;28;20128;-64
2022/05/21 00:51:32;;;;;;;9.30;3.05;;;10.40;99.90;;;;;;5068303;28;20047;-59
2022/05/21 00:54:01;;;;;;;7.93;3.50;;;10.40;99.90;;;;;;5088610;28;20040;-65
2022/05/21 00:56:29;;;;;;;8.60;3.20;;;10.40;99.90;;;;;;5084993;28;20131;-58
2022/05/21 01:01:44;;;;;;;8.60;3.17;;;10.40;99.90;;;;;;5105358;28;20073;-58
2022/05/21 01:04:11;;;;;;;9.30;4.05;;;10.40;99.90;;;;;;5088043;28;20054;-61
2022/05/21 01:06:37;;;;;;;6.95;3.03;;;10.40;99.90;;;;;;5088716;28;20462;-63
2022/05/21 01:09:04;;;;;;;8.35;3.95;;;10.40;99.90;;;;;;5088427;28;20046;-58
2022/05/21 01:11:30;;;;;;;12.13;3.63;;;10.40;99.90;;;;;;5088753;28;20039;-58
2022/05/21 01:13:56;;;;;;;8.63;3.13;;;10.40;99.90;;;;;;5089277;28;20079;-65
2022/05/21 01:16:22;;;;;;;9.90;3.83;;;10.40;99.90;;;;;;5071478;28;20543;-61
2022/05/21 01:18:48;;;;;;;10.18;4.30;;;10.50;99.90;;;;;;5088466;28;20180;-65
2022/05/21 01:21:14;;;;;;;15.93;4.53;;;10.50;99.90;;;;;;5071001;28;20045;-62
2022/05/21 01:23:40;;;;;;;14.75;5.30;;;10.60;99.90;;;;;;5071348;28;21231;-58
2022/05/21 01:26:18;;;;;;;14.48;5.53;;;10.60;99.90;;;;;;5087865;28;20047;-64
2022/05/21 01:28:44;;;;;;;9.77;5.18;;;10.60;99.90;;;;;;5088549;28;20039;-58
2022/05/21 01:31:10;;;;;;;19.27;6.85;;;10.60;99.90;;;;;;5087949;28;20491;-59
2022/05/21 01:33:41;;;;;;;17.65;6.85;;;10.70;99.90;;;;;;5087549;28;20093;-64
2022/05/21 01:36:08;;;;;;;13.10;6.60;;;10.70;99.90;;;;;;5088682;28;20047;-60
2022/05/21 01:38:36;;;;;;;19.17;7.65;;;10.70;99.90;;;;;;5104535;28;20111;-60
2022/05/21 01:41:03;;;;;;;20.85;8.10;;;10.70;99.90;;;;;;5088930;28;20559;-59
2022/05/21 01:46:15;;;;;;;23.17;7.97;;;10.80;99.90;;;;;;5087368;28;20044;-63
2022/05/21 01:48:42;;;;;;;25.08;8.82;;;10.80;99.90;;;;;;5088244;28;20044;-65
2022/05/21 01:51:08;;;;;;;16.67;7.90;;;10.90;99.90;;;;;;5087854;28;20080;-63
2022/05/21 01:53:36;;;;;;;17.23;8.25;;;10.90;99.90;;;;;;5089096;28;20039;-58
2022/05/21 01:56:09;;;;;;;19.35;8.52;;;10.90;99.90;;;;;;5085849;28;20436;-59
2022/05/21 01:58:36;;;;;;;16.25;7.50;;;10.90;99.90;;;;;;5068270;28;20048;-58
2022/05/21 02:01:03;;;;;;;18.58;8.55;;;11.00;99.90;;;;;;5068064;28;20056;-62
2022/05/21 02:03:29;;;;;;;16.90;7.47;;;11.00;99.90;;;;;;5088178;28;20520;-69
2022/05/21 02:05:54;;;;;;;16.23;8.25;;;11.00;99.90;;;;;;5088194;28;20123;-63
2022/05/21 02:08:20;;;;;;;15.60;7.40;;;11.10;99.90;;;;;;5087729;28;20498;-58
2022/05/21 02:10:46;;;;;;;12.85;8.15;;;11.10;99.90;;;;;;5054207;28;20075;-62
2022/05/21 02:13:14;;;;;;;20.63;9.00;;;11.10;99.90;;;;;;5087540;28;20036;-63
2022/05/21 02:15:41;;;;;;;19.38;8.27;;;11.10;99.90;;;;;;5088192;28;20054;-58
2022/05/21 02:18:07;;;;;;;20.05;8.65;;;11.20;99.90;;;;;;5087539;28;20089;-60
2022/05/21 02:20:32;;;;;;;22.27;8.30;;;11.20;99.90;;;;;;5088071;28;20047;-64
2022/05/21 02:22:58;;;;;;;15.90;9.50;;;11.30;99.90;;;;;;5083745;28;20043;-59
2022/05/21 02:25:24;;;;;;;20.20;9.07;;;11.30;99.90;;;;;;5084614;28;20040;-59
2022/05/21 02:27:49;;;;;;;26.38;10.45;;;11.30;99.90;;;;;;5088243;28;20520;-63
2022/05/21 02:30:15;;;;;;;22.73;10.73;;;11.40;99.90;;;;;;5087923;28;20113;-67
2022/05/21 02:32:41;;;;;;;19.42;10.75;;;11.40;99.90;;;;;;5075061;28;20089;-65
2022/05/21 02:35:07;;;;;;;21.77;10.63;;;11.50;99.90;;;;;;5090299;28;20043;-61
2022/05/21 02:40:19;;;;;;;20.48;11.85;;;11.60;99.90;;;;;;5091759;28;20058;-65
2022/05/21 02:42:48;;;;;;;23.77;12.80;;;11.60;99.90;;;;;;5091161;28;20047;-70
2022/05/21 02:45:22;;;;;;;31.75;14.93;;;11.70;99.90;;;;;;5091681;28;20155;-61
2022/05/21 02:47:48;;;;;;;23.75;13.40;;;11.70;99.90;;;;;;5086576;28;20379;-64
2022/05/21 02:50:17;;;;;;;28.67;15.52;;;11.70;99.90;;;;;;5071742;28;20102;-61
2022/05/21 02:52:43;;;;;;;27.08;13.30;;;11.70;99.90;;;;;;5087108;28;20414;-61
2022/05/21 02:55:11;;;;;;;33.53;17.10;;;11.80;99.90;;;;;;5071005;28;20054;-70
2022/05/21 02:57:37;;;;;;;32.22;16.77;;;11.80;99.90;;;;;;5088143;28;20456;-67
2022/05/21 03:00:09;;;;;;;21.63;13.93;;;11.80;99.90;;;;;;5090294;28;20036;-61
2022/05/21 03:02:35;;;;;;;22.65;16.23;;;11.80;99.90;;;;;;5074409;28;20054;-65
2022/05/21 03:05:05;;;;;;;39.35;18.52;;;11.80;99.90;;;;;;5089999;28;20046;-69
2022/05/21 03:07:35;;;;;;;34.97;16.13;;;11.90;99.90;;;;;;5074750;28;20074;-66
2022/05/21 03:12:45;;;;;;;39.88;15.63;;;11.90;99.90;;;;;;5090599;28;20060;-63
2022/05/21 03:15:11;;;;;;;32.60;16.80;;;11.90;99.90;;;;;;5073920;28;20035;-65
2022/05/21 03:17:36;;;;;;;39.30;18.05;;;11.90;99.90;;;;;;5056721;28;20047;-69
2022/05/21 03:20:03;;;;;;;31.33;16.40;;;11.90;99.90;;;;;;5089482;28;20036;-62
2022/05/21 03:22:29;;;;;;;28.70;15.02;;;12.00;99.90;;;;;;5082765;28;20111;-63
2022/05/21 03:24:55;;;;;;;40.25;16.98;;;12.00;99.90;;;;;;5086990;28;20143;-68
2022/05/21 03:27:21;;;;;;;35.65;15.50;;;12.00;99.90;;;;;;5069960;28;20476;-67
2022/05/21 03:29:46;;;;;;;34.42;15.90;;;12.00;99.90;;;;;;5055206;28;20031;-62
2022/05/21 03:32:12;;;;;;;37.58;16.20;;;12.10;99.90;;;;;;5089961;28;20426;-67
2022/05/21 03:34:38;;;;;;;33.00;14.10;;;12.10;99.90;;;;;;5080303;28;20391;-65
2022/05/21 03:37:04;;;;;;;37.65;14.68;;;12.10;99.90;;;;;;5090382;28;20083;-65
2022/05/21 03:39:30;;;;;;;33.03;12.60;;;12.10;99.90;;;;;;5073039;28;20427;-62
2022/05/21 03:41:57;;;;;;;30.45;12.00;;;12.20;99.90;;;;;;5090123;28;20063;-66
2022/05/21 03:44:23;;;;;;;39.63;12.40;;;12.20;99.90;;;;;;5089900;28;20079;-65
2022/05/21 03:46:48;;;;;;;30.88;9.95;;;12.30;99.90;;;;;;5073350;28;20077;-70
2022/05/21 03:49:14;;;;;;;27.13;10.40;;;12.30;99.90;;;;;;5090441;28;20501;-60
2022/05/21 03:51:40;;;;;;;30.42;10.40;;;12.30;99.90;;;;;;5087942;28;20059;-61
2022/05/21 03:54:06;;;;;;;31.25;9.20;;;12.40;99.90;;;;;;5062306;28;20048;-64
2022/05/21 03:56:31;;;;;;;24.45;7.72;;;12.40;99.90;;;;;;5087474;28;20036;-69
2022/05/21 03:58:57;;;;;;;33.88;8.43;;;12.50;99.90;;;;;;5105245;28;20043;-65
2022/05/21 04:01:23;;;;;;;40.35;8.20;;;12.50;99.90;;;;;;5088468;28;20060;-64
2022/05/21 04:03:50;;;;;;;33.65;8.77;;;12.50;99.90;;;;;;5089777;28;20083;-68
2022/05/21 04:06:16;;;;;;;37.28;8.32;;;12.60;99.90;;;;;;5072509;28;20087;-70
2022/05/21 04:08:42;;;;;;;27.77;7.32;;;12.60;99.90;;;;;;5090912;28;20110;-67
2022/05/21 04:11:08;;;;;;;23.90;7.60;;;12.60;99.90;;;;;;5072694;28;20236;-61
2022/05/21 04:13:33;;;;;;;16.65;5.20;;;12.70;99.90;;;;;;5089571;28;20043;-66
2022/05/21 04:15:59;;;;;;;28.35;7.43;;;12.70;99.90;;;;;;5089631;28;20485;-64
2022/05/21 04:18:25;;;;;;;34.13;7.22;;;12.80;99.90;;;;;;5089180;28;20443;-63
2022/05/21 04:20:50;;;;;;;27.65;7.38;;;12.80;99.90;;;;;;5072538;28;20505;-67
2022/05/21 04:23:16;;;;;;;20.23;6.22;;;12.80;99.90;;;;;;5071980;28;20045;-69
2022/05/21 04:25:42;;;;;;;19.30;6.25;;;12.90;99.90;;;;;;5072858;28;20058;-67
2022/05/21 04:28:09;;;;;;;25.42;5.40;;;12.90;99.90;;;;;;5071974;28;20101;-70
2022/05/21 04:30:35;;;;;;;33.08;6.57;;;12.90;99.90;;;;;;5056443;28;20435;-64
2022/05/21 04:33:01;;;;;;;24.35;6.47;;;12.90;99.90;;;;;;5084785;28;20047;-62
2022/05/21 04:38:12;;;;;;;30.95;6.00;;;13.00;99.90;;;;;;5085983;28;20478;-61
2022/05/21 04:40:38;;;;;;;20.67;5.60;;;13.00;99.90;;;;;;5068513;28;20089;-65
2022/05/21 04:43:03;;;;;;;27.95;4.60;;;13.00;99.90;;;;;;5085917;28;20060;-61
2022/05/21 04:45:29;;;;;;;28.75;4.75;;;13.10;99.90;;;;;;5088499;28;20481;-67
2022/05/21 04:47:55;;;;;;;27.40;4.60;;;13.10;99.90;;;;;;5088634;28;20126;-64
2022/05/21 04:50:21;;;;;;;29.17;5.07;;;13.20;99.90;;;;;;5072473;28;20097;-64
2022/05/21 04:52:46;;;;;;;24.83;4.90;;;13.20;99.90;;;;;;5071727;28;20043;-66
2022/05/21 04:55:12;;;;;;;26.33;4.50;;;13.20;99.90;;;;;;5089284;28;20103;-69
2022/05/21 04:57:38;;;;;;;25.60;4.32;;;13.30;99.90;;;;;;5070592;28;20400;-63
2022/05/21 05:00:06;;;;;;;24.50;4.20;;;13.30;99.90;;;;;;5089066;28;20090;-66
2022/05/21 05:02:32;;;;;;;15.45;3.25;;;13.30;99.90;;;;;;5067704;28;20571;-65
2022/05/21 05:04:58;;;;;;;23.70;3.85;;;13.40;99.90;;;;;;5059039;28;20039;-64
2022/05/21 05:07:24;;;;;;;18.40;3.88;;;13.40;99.90;;;;;;5089098;28;20546;-66
2022/05/21 05:09:50;;;;;;;18.45;3.60;;;13.40;99.90;;;;;;5087729;28;20104;-69
2022/05/21 05:12:16;;;;;;;12.93;2.70;;;13.40;99.90;;;;;;5071492;28;20099;-66
2022/05/21 05:14:42;;;;;;;18.10;3.38;;;13.40;99.90;;;;;;5087736;28;20050;-65
2022/05/21 05:17:12;;;;;;;12.80;3.20;;;13.40;99.90;;;;;;5088920;28;20470;-59
2022/05/21 05:19:37;;;;;;;18.00;3.47;;;13.40;99.90;;;;;;5088147;28;20059;-68
2022/05/21 05:22:04;;;;;;;15.88;3.20;;;13.50;99.90;;;;;;5088495;28;20039;-67
2022/05/21 05:24:29;;;;;;;17.35;3.47;;;13.60;99.90;;;;;;5087920;28;20420;-64
2022/05/21 05:26:55;;;;;;;17.35;4.07;;;13.70;99.90;;;;;;5088294;28;20047;-69
2022/05/21 05:29:21;;;;;;;14.43;3.30;;;13.70;99.90;;;;;;5088456;28;20050;-66
2022/05/21 05:31:47;;;;;;;11.13;3.08;;;13.70;99.90;;;;;;5071032;28;20047;-65
2022/05/21 05:34:13;;;;;;;17.08;2.95;;;13.70;99.90;;;;;;5084427;28;20075;-73
2022/05/21 05:36:40;;;;;;;11.63;2.95;;;13.60;99.90;;;;;;5081046;28;20047;-68
2022/05/21 05:39:06;;;;;;;11.00;2.92;;;13.60;99.90;;;;;;5071264;28;20131;-69
2022/05/21 05:41:31;;;;;;;12.35;2.70;;;13.60;99.90;;;;;;5087234;28;20114;-62
2022/05/21 05:43:58;;;;;;;15.38;3.10;;;13.60;99.90;;;;;;5087335;28;20070;-66
2022/05/21 05:46:23;;;;;;;15.27;2.28;;;13.70;99.90;;;;;;5105972;28;20397;-61
2022/05/21 05:48:50;;;;;;;10.65;2.92;;;13.70;99.90;;;;;;5086929;28;20126;-65
2022/05/21 05:51:17;;;;;;;14.60;2.67;;;13.80;99.90;;;;;;5088455;28;20052;-66
2022/05/21 05:53:44;;;;;;;13.90;3.35;;;13.80;99.90;;;;;;5087523;28;20069;-62
2022/05/21 05:56:10;;;;;;;13.25;3.20;;;13.80;99.90;;;;;;5071323;28;20061;-63
2022/05/21 06:01:22;;;;;;;11.40;2.40;;;14.00;99.90;;;;;;5089414;28;20466;-62
2022/05/21 06:03:48;;;;;;;20.75;3.42;;;14.00;99.90;;;;;;5092430;28;20048;-62
2022/05/21 06:06:15;;;;;;;19.38;3.72;;;13.90;99.90;;;;;;5091408;28;20041;-62
2022/05/21 06:08:41;;;;;;;21.65;3.78;;;13.80;99.90;;;;;;5110767;28;20062;-66
2022/05/21 06:11:07;;;;;;;15.52;3.20;;;13.80;99.90;;;;;;5091031;28;20044;-61
2022/05/21 06:13:33;;;;;;;17.33;3.40;;;13.70;99.90;;;;;;5058491;28;20047;-70
2022/05/21 06:16:00;;;;;;;11.82;3.30;;;13.70;99.90;;;;;;5074392;28;20054;-61
2022/05/21 06:18:26;;;;;;;21.77;3.60;;;13.60;99.90;;;;;;5092194;28;20046;-61
2022/05/21 06:20:52;;;;;;;12.00;2.70;;;13.60;99.90;;;;;;5074973;28;20047;-63
2022/05/21 06:23:18;;;;;;;11.75;2.92;;;13.60;99.90;;;;;;5074250;28;20051;-67
2022/05/21 06:25:44;;;;;;;18.33;3.88;;;13.60;99.90;;;;;;5091320;28;20048;-62
2022/05/21 06:28:10;;;;;;;12.82;2.97;;;13.70;99.90;;;;;;5087010;28;20051;-64
2022/05/21 06:30:38;;;;;;;15.82;3.00;;;13.80;99.90;;;;;;5071937;28;20039;-61
2022/05/21 06:33:19;;;;;;;14.13;3.67;;;13.90;99.90;;;;;;5106638;28;20423;-64
2022/05/21 06:35:59;;;;;;;17.45;3.08;;;14.10;99.90;;;;;;5091837;28;20139;-68
2022/05/21 06:38:25;;;;;;;21.25;3.45;;;14.10;99.90;;;;;;5091571;28;20048;-64
2022/05/21 06:40:51;;;;;;;16.13;3.67;;;14.20;99.90;;;;;;5091400;28;20038;-61
2022/05/21 06:43:16;;;;;;;15.07;2.90;;;14.20;99.90;;;;;;5091930;28;20098;-65
2022/05/21 06:45:42;;;;;;;16.92;3.08;;;14.20;99.90;;;;;;5087326;28;20486;-61
2022/05/21 06:48:09;;;;;;;14.75;2.80;;;14.30;99.90;;;;;;5090084;28;20040;-63
2022/05/21 06:50:38;;;;;;;19.42;3.45;;;14.40;99.90;;;;;;5087523;28;20048;-64
2022/05/21 06:53:04;;;;;;;20.43;3.33;;;14.60;99.90;;;;;;5088079;28;20073;-70
2022/05/21 06:55:30;;;;;;;12.00;2.92;;;14.90;99.90;;;;;;5087566;28;20397;-67
2022/05/21 06:57:56;;;;;;;14.82;2.72;;;14.80;99.90;;;;;;5088143;28;20139;-63
2022/05/21 07:00:23;;;;;;;13.30;2.72;;;14.80;99.90;;;;;;5090050;28;20048;-62
2022/05/21 07:02:50;;;;;;;16.23;3.28;;;14.70;99.90;;;;;;5090766;28;20052;-63
2022/05/21 07:08:05;;;;;;;16.27;3.05;;;14.60;99.90;;;;;;5090672;28;20087;-69
2022/05/21 07:10:32;;;;;;;16.48;3.30;;;14.60;99.90;;;;;;5090939;28;20039;-60
2022/05/21 07:12:58;;;;;;;14.50;2.95;;;14.60;99.90;;;;;;5090538;28;20047;-64
2022/05/21 07:15:24;;;;;;;12.45;3.60;;;14.50;99.90;;;;;;5089641;28;20070;-62
2022/05/21 07:17:56;;;;;;;16.73;3.30;;;14.60;99.90;;;;;;5074301;28;20048;-62
2022/05/21 07:20:22;;;;;;;24.05;3.58;;;14.60;99.90;;;;;;5073280;28;20524;-61
2022/05/21 07:22:49;;;;;;;20.48;3.25;;;14.90;99.90;;;;;;5077064;28;20052;-61
2022/05/21 07:25:26;;;;;;;11.95;2.92;;;15.20;99.90;;;;;;5095761;28;20044;-67
2022/05/21 07:27:52;;;;;;;9.35;2.45;;;15.60;99.90;;;;;;5086007;28;20490;-62
2022/05/21 07:30:19;;;;;;;15.45;2.80;;;15.80;99.90;;;;;;5089262;28;20087;-71
2022/05/21 07:32:45;;;;;;;10.77;2.75;;;15.90;99.90;;;;;;5089105;28;20084;-63
2022/05/21 07:35:15;;;;;;;12.70;3.17;;;15.80;99.90;;;;;;5089695;28;20031;-61
2022/05/21 07:37:41;;;;;;;13.25;3.45;;;15.60;99.90;;;;;;5072810;28;20043;-61
2022/05/21 07:40:09;;;;;;;15.07;3.63;;;15.40;99.90;;;;;;5073765;28;20044;-66
2022/05/21 07:42:36;;;;;;;14.55;2.78;;;15.10;99.90;;;;;;5089799;28;20561;-67
2022/05/21 07:45:03;;;;;;;15.35;3.30;;;15.40;99.90;;;;;;5090104;28;20139;-68
2022/05/21 07:47:29;;;;;;;16.75;3.35;;;15.70;99.90;;;;;;5089539;28;20043;-69
2022/05/21 07:49:56;;;;;;;11.77;2.75;;;15.80;99.90;;;;;;5089831;28;20055;-61
2022/05/21 07:52:26;;;;;;;20.92;3.10;;;15.40;99.90;;;;;;5089089;28;20057;-70
2022/05/21 07:54:53;;;;;;;14.75;3.58;;;15.50;99.90;;;;;;5106861;28;20460;-62
2022/05/21 07:57:19;;;;;;;11.15;2.45;;;15.70;99.90;;;;;;5089400;28;20040;-62
2022/05/21 07:59:44;;;;;;;13.60;3.25;;;16.00;99.90;;;;;;5072292;28;20040;-66
2022/05/21 08:02:12;;;;;;;16.10;3.20;;;16.20;99.90;;;;;;5088681;28;20615;-70
2022/05/21 08:04:39;;;;;;;16.30;2.97;;;15.70;99.90;;;;;;5068790;28;20115;-68
2022/05/21 08:07:04;;;;;;;11.73;2.78;;;15.80;99.90;;;;;;5052177;28;20048;-72
2022/05/21 08:09:30;;;;;;;9.55;2.67;;;15.80;99.90;;;;;;5051036;28;20074;-71
2022/05/21 08:11:56;;;;;;;15.52;2.58;;;16.00;99.90;;;;;;5067699;28;20052;-74
2022/05/21 08:14:23;;;;;;;10.50;2.50;;;16.10;99.90;;;;;;5069862;28;20447;-74
2022/05/21 08:16:49;;;;;;;12.88;2.60;;;16.30;99.00;;;;;;5087779;28;20051;-73
2022/05/21 08:19:16;;;;;;;10.82;2.60;;;16.00;99.90;;;;;;5088514;28;20062;-73
2022/05/21 08:21:42;;;;;;;11.35;2.50;;;15.60;99.90;;;;;;5088655;28;20436;-74
2022/05/21 08:26:59;;;;;;;11.95;2.65;;;16.00;99.90;;;;;;5074578;28;20125;-74
2022/05/21 08:29:33;;;;;;;16.70;3.50;;;16.30;95.80;;;;;;5087838;28;20066;-74
2022/05/21 08:32:00;;;;;;;16.33;2.60;;;16.20;99.90;;;;;;5105934;28;20043;-70
2022/05/21 08:34:27;;;;;;;7.72;1.70;;;16.50;98.30;;;;;;5087540;28;20047;-67
2022/05/21 08:36:53;;;;;;;11.13;2.10;;;16.40;94.30;;;;;;5105714;28;20069;-66
2022/05/21 08:39:21;;;;;;;9.85;2.30;;;16.60;98.40;;;;;;5087845;28;20048;-66
2022/05/21 08:42:00;;;;;;;12.32;2.70;;;16.60;96.50;;;;;;5087197;28;20047;-67
2022/05/21 08:44:47;;;;;;;10.73;2.55;;;16.60;96.40;;;;;;5085369;28;20083;-67
2022/05/21 08:47:20;;;;;;;9.30;2.78;;;16.60;97.50;;;;;;5069115;28;20818;-71
2022/05/21 08:50:02;;;;;;;8.00;1.80;;;16.60;93.10;;;;;;5087914;28;20043;-73
2022/05/21 08:52:57;;;;;;;6.78;1.95;;;16.70;93.10;;;;;;5086313;28;20089;-64
2022/05/21 08:55:31;;;;;;;11.07;2.40;;;16.70;96.70;;;;;;5085769;28;20093;-62
2022/05/21 08:58:05;;;;;;;11.35;2.40;;;16.90;96.70;;;;;;5088957;28;20057;-72
2022/05/21 09:00:37;;;;;;;10.75;2.80;;;16.60;96.30;;;;;;5087424;28;20063;-68
2022/05/21 09:03:17;;;;;;;10.18;2.45;;;16.40;99.90;;;;;;5088555;28;20497;-70
2022/05/21 09:06:11;;;;;;;12.65;2.80;;;16.00;99.50;;;;;;5078218;28;20392;-71
2022/05/21 09:08:42;;;;;;;15.40;2.70;;;15.90;99.90;;;;;;5087182;28;20063;-65
2022/05/21 09:11:38;;;;;;;11.25;2.40;;;16.00;98.00;;;;;;5088514;28;20584;-63
2022/05/21 09:14:22;;;;;;;14.20;3.22;;;16.20;96.40;;;;;;5071289;28;20039;-61
2022/05/21 09:16:55;;;;;;;12.30;2.95;;;16.10;95.90;;;;;;5080226;28;20043;-66
2022/05/21 09:19:32;;;;;;;8.65;2.08;;;15.90;98.20;;;;;;5085888;28;20509;-69
2022/05/21 09:22:07;;;;;;;10.15;2.08;;;15.90;95.90;;;;;;5085014;28;20043;-70
2022/05/21 09:24:52;;;;;;;10.20;3.20;;;16.20;94.30;;;;;;5085390;28;20896;-72
2022/05/21 09:27:39;;;;;;;11.57;2.00;;;16.50;95.70;;;;;;5085246;28;20555;-67
2022/05/21 09:30:16;;;;;;;13.50;2.92;;;16.50;95.40;;;;;;5084654;28;20398;-74
2022/05/21 09:32:46;;;;;;;8.57;2.50;;;16.30;93.70;;;;;;5080077;28;20490;-69
2022/05/21 09:35:15;;;;;;;;;;;16.00;96.00;;;;;;5068960;28;20044;-72
2022/05/21 09:37:42;;;;;;;8.95;2.80;;;16.00;99.40;;;;;;5086210;28;19924;-69
2022/05/21 09:40:29;;;;;;;10.27;2.30;;;15.90;98.00;;;;;;5054627;28;20043;-67
2022/05/21 09:45:42;;;;;;;9.32;2.15;;;15.80;97.60;;;;;;5076932;28;20051;-63
2022/05/21 09:48:07;;;;;;;8.52;2.20;;;15.90;96.00;;;;;;5067412;28;20360;-62
2022/05/21 09:50:54;;;;;;;16.75;2.70;;;16.20;94.20;;;;;;5084813;28;20644;-68
2022/05/21 09:53:25;;;;;;;11.02;2.63;;;16.00;98.60;;;;;;5065587;28;20056;-63
2022/05/21 09:56:05;;;;;;;12.07;2.90;;;15.90;97.80;;;;;;5081979;28;20043;-70
2022/05/21 09:58:38;;;;;;;13.90;3.25;;;15.90;98.80;;;;;;5066910;28;20472;-62
2022/05/21 10:01:06;;;;;;;15.48;2.88;;;16.00;99.90;;;;;;5086199;28;20052;-66
2022/05/21 10:03:45;;;;;;;21.17;3.97;;;16.00;99.90;;;;;;5070650;28;20055;-62
2022/05/21 10:06:17;;;;;;;10.07;2.13;;;16.00;98.20;;;;;;5087924;28;20051;-65
2022/05/21 10:11:40;;;;;;;16.17;4.10;;;15.60;99.90;;;;;;5087713;28;20096;-64
2022/05/21 10:14:48;;;;;;;12.55;3.38;;;15.30;99.90;;;;;;5087614;28;20071;-67
2022/05/21 10:17:39;;;;;;;11.25;2.60;;;15.20;99.90;;;;;;5105292;28;20092;-64
2022/05/21 10:20:38;;;;;;;10.38;2.53;;;15.30;99.90;;;;;;5088488;28;20236;-61
2022/05/21 10:23:27;;;;;;;;;;;15.30;99.90;;;;;;5080703;28;20067;-67
2022/05/21 10:26:06;;;;;;;15.67;2.30;;;15.60;99.90;;;;;;5090544;28;19923;-74
2022/05/21 10:28:47;;;;;;;17.93;2.80;;;15.90;99.90;;;;;;5087310;28;20054;-66
2022/05/21 10:31:37;;;;;;;16.17;3.25;;;15.80;98.70;;;;;;5086692;28;20554;-72
2022/05/21 10:34:18;;;;;;;11.50;2.78;;;16.00;99.90;;;;;;5085479;28;20409;-64
2022/05/21 10:36:53;;;;;;;9.23;2.60;;;16.30;99.90;;;;;;5087585;28;20048;-64
2022/05/21 10:39:30;;;;;;;8.45;2.30;;;16.30;99.10;;;;;;5085647;28;20624;-64
2022/05/21 10:42:05;;;;;;;9.40;2.88;;;16.20;97.00;;;;;;5086383;28;20055;-69
2022/05/21 10:45:10;;;;;;;12.95;2.72;;;16.00;95.60;;;;;;5085409;28;20046;-62
2022/05/21 10:47:41;;;;;;;10.48;1.90;;;15.90;93.60;;;;;;5087558;28;20046;-69
2022/05/21 10:50:20;;;;;;;16.05;3.10;;;15.90;95.00;;;;;;5091061;28;20043;-68
2022/05/21 10:53:05;;;;;;;10.00;3.03;;;15.70;97.10;;;;;;5089276;28;20172;-64
2022/05/21 10:56:12;;;;;;;14.48;2.72;;;15.70;99.70;;;;;;5105653;28;20047;-64
2022/05/21 10:58:50;;;;;;;12.10;2.80;;;15.60;99.50;;;;;;5024716;28;20105;-66
2022/05/21 11:01:34;;;;;;;8.25;2.40;;;16.00;99.90;;;;;;5073391;28;20058;-62
2022/05/21 11:04:22;;;;;;;12.00;3.53;;;16.30;99.90;;;;;;5101740;28;20043;-66
2022/05/21 11:07:22;;;;;;;10.10;3.10;;;16.50;99.90;;;;;;5090392;28;20035;-67
2022/05/21 11:09:51;;;;;;;12.30;2.72;;;16.50;98.60;;;;;;5103293;28;20145;-61
2022/05/21 11:12:20;;;;;;;11.15;2.83;;;16.60;94.70;;;;;;5053398;28;20040;-70
2022/05/21 11:15:01;;;;;;;11.13;2.22;;;16.70;95.50;;;;;;5070805;28;20498;-63
2022/05/21 11:17:53;;;;;;;9.02;2.45;;;16.70;99.50;;;;;;5088537;28;20071;-65
2022/05/21 11:20:22;;;;;;;7.10;2.17;;;16.50;96.50;;;;;;5090258;28;20047;-66
2022/05/21 11:23:04;;;;;;;8.57;2.13;;;16.70;91.80;;;;;;5077271;28;20494;-62
2022/05/21 11:25:45;;;;;;;9.00;2.28;;;16.60;89.70;;;;;;5068994;28;20044;-61
2022/05/21 11:28:29;;;;;;;10.13;2.20;;;16.30;91.20;;;;;;5076422;28;20044;-61
2022/05/21 11:31:01;;;;;;;10.02;2.25;;;16.20;91.60;;;;;;5070717;28;20036;-64
2022/05/21 11:39:07;;;;;;;4.05;1.52;;;16.60;95.70;;;;;;5089920;28;20481;-59
2022/05/21 11:42:02;;;;;;;;;;;16.80;95.60;;;;;;5074238;28;20423;-63
2022/05/21 11:44:55;;;;;;;11.32;1.92;;;16.60;94.10;;;;;;5079461;28;19971;-63
2022/05/21 11:47:21;;;;;;;7.07;2.13;;;16.30;94.60;;;;;;5090190;28;20059;-64
2022/05/21 11:50:03;;;;;;;16.75;2.53;;;16.20;97.60;;;;;;5072532;28;20032;-63
2022/05/21 11:52:32;;;;;;;6.82;2.03;;;16.40;95.20;;;;;;5088647;28;20120;-67
2022/05/21 11:54:57;;;;;;;9.57;2.13;;;16.60;94.20;;;;;;5089692;28;20051;-64
2022/05/21 11:57:35;;;;;;;8.98;2.53;;;16.80;90.20;;;;;;5072030;28;20040;-72
2022/05/21 12:00:06;;;;;;;7.53;1.90;;;17.00;80.80;;;;;;5089571;28;20074;-70
2022/05/21 12:02:34;;;;;;;12.88;2.75;;;17.10;80.30;;;;;;5088760;28;20525;-66
2022/05/21 12:05:05;;;;;;;9.23;2.08;;;17.00;93.60;;;;;;5106493;28;20155;-67
2022/05/21 12:07:47;;;;;;;10.52;2.17;;;16.70;92.10;;;;;;5089505;28;20051;-61
2022/05/21 12:10:26;;;;;;;14.45;2.33;;;16.50;82.60;;;;;;5070423;28;20058;-68
2022/05/21 12:13:12;;;;;;;10.00;2.08;;;16.50;93.40;;;;;;5072970;28;20489;-67
2022/05/21 12:15:48;;;;;;;9.63;1.80;;;16.80;88.50;;;;;;5089159;28;20318;-64
2022/05/21 12:18:34;;;;;;;11.90;2.13;;;16.80;73.20;;;;;;5088254;28;20059;-66
2022/05/21 12:21:00;;;;;;;8.55;2.30;;;16.70;75.00;;;;;;5093612;28;20091;-63
2022/05/21 12:23:45;;;;;;;11.13;2.95;;;16.70;90.30;;;;;;5088507;28;20461;-70
2022/05/21 12:26:33;;;;;;;9.57;2.45;;;16.70;94.10;;;;;;5049384;28;20507;-63
2022/05/21 12:29:11;;;;;;;10.43;2.63;;;16.70;93.70;;;;;;5064847;28;20048;-59
2022/05/21 12:31:44;;;;;;;8.20;1.95;;;17.00;97.40;;;;;;5063636;28;20127;-60
2022/05/21 12:34:22;;;;;;;19.65;3.53;;;17.10;93.80;;;;;;5066161;28;20037;-60
2022/05/21 12:37:18;;;;;;;11.23;2.70;;;17.00;97.40;;;;;;5048330;28;20056;-61
2022/05/21 12:39:51;;;;;;;10.35;2.40;;;17.10;91.60;;;;;;5065023;28;20551;-64
2022/05/21 12:42:23;;;;;;;13.23;2.53;;;17.10;90.60;;;;;;5066084;28;20044;-72
2022/05/21 12:44:49;;;;;;;14.55;2.90;;;17.20;94.20;;;;;;5063997;28;20059;-70
2022/05/21 12:47:32;;;;;;;11.23;2.17;;;17.20;93.10;;;;;;5065642;28;20047;-63
2022/05/21 12:49:59;;;;;;;10.23;2.15;;;17.30;85.00;;;;;;5064090;28;20380;-65
2022/05/21 12:52:32;;;;;;;9.55;2.75;;;17.20;73.50;;;;;;5064852;28;20044;-70
2022/05/21 12:55:18;;;;;;;8.73;2.13;;;17.00;81.60;;;;;;5064971;28;20471;-64
2022/05/21 12:57:49;;;;;;;6.80;2.50;;;17.00;93.10;;;;;;5064270;28;20297;-60
2022/05/21 13:00:18;;;;;;;13.07;2.80;;;17.20;90.90;;;;;;5065111;28;20083;-59
2022/05/21 13:02:51;;;;;;;12.88;2.65;;;17.30;88.20;;;;;;5064112;28;20419;-61
2022/05/21 13:05:32;;;;;;;6.57;1.90;;;17.40;87.70;;;;;;5065009;28;20036;-60
2022/05/21 13:08:03;;;;;;;11.18;2.15;;;17.30;91.00;;;;;;5065580;28;20040;-61
2022/05/21 13:10:31;;;;;;;8.10;1.42;;;17.40;87.10;;;;;;5047177;28;20041;-63
2022/05/21 13:13:06;;;;;;;8.63;2.00;;;17.50;84.70;;;;;;5065418;28;20048;-62
2022/05/21 13:15:40;;;;;;;8.07;2.10;;;17.40;74.40;;;;;;5063895;28;20072;-64
2022/05/21 13:18:44;;;;;;;9.15;2.35;;;17.50;74.20;;;;;;5064501;28;20510;-70
2022/05/21 13:21:44;;;;;;;6.20;2.15;;;17.50;81.40;;;;;;5065038;28;20091;-65
2022/05/21 13:24:58;;;;;;;7.47;2.20;;;17.60;83.30;;;;;;5068762;28;20056;-59
2022/05/21 13:27:24;;;;;;;5.43;1.90;;;17.30;83.30;;;;;;5074772;28;20089;-62
2022/05/21 13:29:52;;;;;;;9.38;1.95;;;17.10;83.80;;;;;;5068142;28;20108;-66
2022/05/21 13:32:28;;;;;;;10.32;2.72;;;16.90;88.00;;;;;;5083626;28;20100;-68